Time;durP1;ratioP1;P1;durP2;ratioP2;P2;SDS_P1;SDS_P2;PMS_P1;PMS_P2;Temp;Humidity;BMP_temperature;BMP_pressure;BME280_temperature;BME280_humidity;BME280_pressure;Samples;Min_cycle;Max_cycle;Signal;HPM_P1;HPM_P2
2022/09/21 00:00:44;;;;;;;4.28;2.63;;;10.40;99.90;;;;;;5011359;28;20467;-72
2022/09/21 00:03:10;;;;;;;6.20;2.85;;;10.30;99.90;;;;;;5012441;28;20463;-73
2022/09/21 00:05:36;;;;;;;5.22;2.50;;;10.30;99.90;;;;;;5011878;28;20021;-73
2022/09/21 00:08:03;;;;;;;4.30;2.10;;;10.30;99.90;;;;;;5011415;28;20052;-72
2022/09/21 00:10:29;;;;;;;4.85;2.30;;;10.30;99.90;;;;;;5010822;28;20076;-72
2022/09/21 00:12:56;;;;;;;4.53;2.35;;;10.30;99.90;;;;;;5011431;28;20108;-72
2022/09/21 00:15:22;;;;;;;6.20;2.42;;;10.20;99.90;;;;;;5011829;28;20018;-73
2022/09/21 00:17:52;;;;;;;6.35;2.58;;;10.20;99.90;;;;;;5012882;28;20093;-72
2022/09/21 00:20:18;;;;;;;2.97;2.50;;;10.20;99.90;;;;;;5010637;28;20048;-73
2022/09/21 00:22:45;;;;;;;4.43;2.67;;;10.20;99.90;;;;;;5011386;28;20113;-71
2022/09/21 00:25:11;;;;;;;4.22;2.50;;;10.20;99.90;;;;;;5012199;28;20097;-72
2022/09/21 00:27:37;;;;;;;6.55;2.65;;;10.20;99.90;;;;;;5010655;28;20061;-72
2022/09/21 00:30:05;;;;;;;4.85;2.67;;;10.10;99.90;;;;;;5012159;28;20057;-72
2022/09/21 00:32:31;;;;;;;5.20;2.30;;;10.10;99.90;;;;;;5010627;28;20037;-72
2022/09/21 00:34:59;;;;;;;7.25;3.10;;;10.10;99.90;;;;;;5012034;28;20053;-72
2022/09/21 00:37:25;;;;;;;4.65;2.78;;;10.10;99.90;;;;;;5010576;28;20439;-72
2022/09/21 00:39:51;;;;;;;5.05;2.67;;;10.00;99.90;;;;;;5011152;28;20070;-73
2022/09/21 00:42:32;;;;;;;11.35;2.55;;;10.00;99.90;;;;;;5010564;28;20108;-73
2022/09/21 00:44:58;;;;;;;3.67;2.40;;;10.00;99.90;;;;;;5011218;28;20030;-74
2022/09/21 00:47:44;;;;;;;6.25;2.80;;;10.00;99.90;;;;;;5010491;28;20533;-74
2022/09/21 00:50:15;;;;;;;5.47;2.80;;;9.90;99.90;;;;;;5010977;28;20061;-72
2022/09/21 00:52:48;;;;;;;8.20;2.83;;;9.90;99.90;;;;;;5012011;28;20026;-72
2022/09/21 00:55:37;;;;;;;5.82;2.58;;;9.90;99.90;;;;;;5011090;28;20026;-72
2022/09/21 00:58:10;;;;;;;6.78;2.65;;;9.90;99.90;;;;;;5010751;28;20121;-72
2022/09/21 01:00:36;;;;;;;4.10;2.45;;;9.80;99.90;;;;;;5010353;28;20100;-72
2022/09/21 01:03:04;;;;;;;7.13;3.22;;;9.80;99.90;;;;;;5014926;28;20088;-72
2022/09/21 01:05:29;;;;;;;5.68;2.88;;;9.70;99.90;;;;;;5014949;28;20022;-72
2022/09/21 01:08:00;;;;;;;5.45;2.72;;;9.70;99.90;;;;;;5015574;28;20036;-72
2022/09/21 01:10:52;;;;;;;6.90;2.65;;;9.70;99.90;;;;;;5014842;28;20525;-72
2022/09/21 01:14:06;;;;;;;5.90;3.00;;;9.70;99.90;;;;;;5008218;28;20048;-72
2022/09/21 01:17:01;;;;;;;11.52;3.10;;;9.60;99.90;;;;;;4973464;28;20050;-72
2022/09/21 01:20:12;;;;;;;4.70;2.47;;;9.60;99.90;;;;;;4973563;28;20138;-72
2022/09/21 01:22:52;;;;;;;5.90;2.47;;;9.60;99.90;;;;;;5002698;28;20033;-72
2022/09/21 01:25:23;;;;;;;6.40;2.50;;;9.50;99.90;;;;;;5013581;28;20025;-74
2022/09/21 01:28:02;;;;;;;6.35;2.75;;;9.50;99.90;;;;;;5014953;28;20112;-74
2022/09/21 01:30:32;;;;;;;9.27;2.58;;;9.50;99.90;;;;;;5014438;28;20029;-74
2022/09/21 01:33:29;;;;;;;5.22;2.63;;;9.50;99.90;;;;;;5013839;28;20494;-74
2022/09/21 01:36:00;;;;;;;5.32;2.30;;;9.60;99.90;;;;;;5015166;28;20071;-75
2022/09/21 01:38:30;;;;;;;6.30;2.92;;;9.60;99.90;;;;;;5013270;28;20125;-74
2022/09/21 01:41:01;;;;;;;4.20;2.33;;;9.50;99.90;;;;;;5014039;28;20169;-74
2022/09/21 01:43:33;;;;;;;5.28;2.50;;;9.50;99.90;;;;;;5012913;28;20037;-72
2022/09/21 01:46:02;;;;;;;5.38;2.30;;;9.50;99.90;;;;;;5013873;28;20026;-72
2022/09/21 01:48:32;;;;;;;5.57;2.72;;;9.50;99.90;;;;;;5012969;28;20439;-72
2022/09/21 01:50:58;;;;;;;3.83;2.10;;;9.40;99.90;;;;;;5013591;28;20116;-72
2022/09/21 01:53:36;;;;;;;5.88;2.67;;;9.40;99.90;;;;;;5012983;28;20030;-73
2022/09/21 01:56:11;;;;;;;4.93;2.60;;;9.40;99.90;;;;;;5015088;28;20026;-72
2022/09/21 01:59:08;;;;;;;3.05;1.83;;;9.40;99.90;;;;;;5012815;28;20060;-74
2022/09/21 02:01:52;;;;;;;6.15;2.30;;;9.40;99.90;;;;;;4987410;28;20038;-72
2022/09/21 02:04:18;;;;;;;6.40;2.50;;;9.40;99.90;;;;;;5013379;28;20117;-71
2022/09/21 02:06:46;;;;;;;4.63;2.40;;;9.40;99.90;;;;;;5013984;28;20113;-72
2022/09/21 02:09:12;;;;;;;4.57;2.70;;;9.40;99.90;;;;;;5013186;28;20034;-72
2022/09/21 02:11:41;;;;;;;6.43;2.60;;;9.40;99.90;;;;;;5013882;28;20022;-72
2022/09/21 02:14:09;;;;;;;5.05;2.50;;;9.40;99.90;;;;;;5013238;28;20068;-71
2022/09/21 02:16:54;;;;;;;5.53;2.47;;;9.40;99.90;;;;;;5012480;28;20030;-72
2022/09/21 02:19:25;;;;;;;6.38;2.97;;;9.30;99.90;;;;;;5013041;28;20041;-72
2022/09/21 02:22:13;;;;;;;4.75;2.45;;;9.20;99.90;;;;;;5012917;28;20032;-72
2022/09/21 02:24:46;;;;;;;3.72;2.38;;;9.10;99.90;;;;;;5013610;28;20029;-72
2022/09/21 02:27:33;;;;;;;4.00;2.08;;;9.10;99.90;;;;;;5012818;28;20033;-71
2022/09/21 02:30:08;;;;;;;5.00;2.60;;;9.10;99.90;;;;;;5014297;28;20057;-72
2022/09/21 02:32:50;;;;;;;7.13;2.60;;;9.20;99.90;;;;;;5012184;28;20171;-72
2022/09/21 02:35:42;;;;;;;8.93;2.72;;;9.20;99.90;;;;;;5013995;28;20125;-72
2022/09/21 02:38:30;;;;;;;6.90;2.67;;;9.20;99.90;;;;;;5014098;28;20037;-72
2022/09/21 02:41:18;;;;;;;5.38;2.30;;;9.10;99.90;;;;;;5012498;28;20041;-71
2022/09/21 02:44:03;;;;;;;4.63;2.53;;;9.10;99.90;;;;;;5013344;28;20025;-71
2022/09/21 02:46:37;;;;;;;3.55;2.13;;;9.10;99.90;;;;;;5012014;28;20065;-72
2022/09/21 02:49:11;;;;;;;5.97;1.90;;;9.00;99.90;;;;;;5012632;28;20029;-72
2022/09/21 02:51:42;;;;;;;4.60;2.15;;;9.00;99.90;;;;;;5011895;28;20026;-72
2022/09/21 02:54:11;;;;;;;3.33;1.98;;;9.00;99.90;;;;;;5012448;28;20037;-71
2022/09/21 02:56:39;;;;;;;5.75;2.30;;;9.00;99.90;;;;;;5011706;28;20040;-72
2022/09/21 02:59:05;;;;;;;4.25;2.42;;;9.00;99.90;;;;;;5012224;28;20128;-72
2022/09/21 03:01:31;;;;;;;7.18;2.20;;;9.00;99.90;;;;;;5011656;28;20030;-72
2022/09/21 03:03:57;;;;;;;6.97;2.20;;;9.00;99.90;;;;;;5012182;28;20026;-73
2022/09/21 03:06:23;;;;;;;5.57;2.17;;;8.90;99.90;;;;;;5011755;28;20471;-76
2022/09/21 03:08:49;;;;;;;3.67;2.40;;;8.90;99.90;;;;;;5012137;28;20056;-72
2022/09/21 03:11:19;;;;;;;6.00;2.55;;;8.80;99.90;;;;;;5012029;28;20409;-72
2022/09/21 03:13:45;;;;;;;5.53;2.53;;;8.90;99.90;;;;;;5011446;28;20045;-72
2022/09/21 03:16:12;;;;;;;4.82;2.60;;;8.80;99.90;;;;;;5012030;28;20026;-71
2022/09/21 03:18:39;;;;;;;5.55;2.55;;;8.80;99.90;;;;;;5011390;28;20034;-71
2022/09/21 03:21:05;;;;;;;4.50;2.10;;;8.80;99.90;;;;;;5013283;28;20352;-71
2022/09/21 03:23:30;;;;;;;4.43;2.63;;;8.70;99.90;;;;;;5012802;28;20028;-72
2022/09/21 03:25:56;;;;;;;8.77;2.55;;;8.70;99.90;;;;;;5011436;28;20030;-71
2022/09/21 03:28:22;;;;;;;5.80;2.30;;;8.70;99.90;;;;;;5011952;28;20124;-72
2022/09/21 03:30:49;;;;;;;6.45;2.80;;;8.70;99.90;;;;;;5012532;28;20030;-73
2022/09/21 03:33:15;;;;;;;3.75;2.13;;;8.70;99.90;;;;;;5011869;28;20026;-72
2022/09/21 03:35:41;;;;;;;5.25;2.60;;;8.60;99.90;;;;;;5012267;28;20052;-72
2022/09/21 03:38:07;;;;;;;4.13;2.35;;;8.60;99.90;;;;;;5012983;28;20414;-72
2022/09/21 03:40:33;;;;;;;4.00;2.13;;;8.60;99.90;;;;;;5011146;28;20489;-72
2022/09/21 03:42:59;;;;;;;6.97;2.60;;;8.60;99.90;;;;;;5012926;28;20030;-72
2022/09/21 03:45:27;;;;;;;4.25;2.63;;;8.60;99.90;;;;;;5012840;28;20083;-72
2022/09/21 03:47:57;;;;;;;4.75;2.30;;;8.60;99.90;;;;;;5012847;28;20109;-72
2022/09/21 03:50:24;;;;;;;5.22;2.83;;;8.60;99.90;;;;;;5011503;28;20029;-72
2022/09/21 03:52:50;;;;;;;6.38;2.70;;;8.60;99.90;;;;;;5012598;28;20033;-72
2022/09/21 03:55:16;;;;;;;5.03;2.60;;;8.50;99.90;;;;;;5011554;28;20029;-72
2022/09/21 03:57:41;;;;;;;5.80;2.78;;;8.50;99.90;;;;;;5011028;28;20379;-72
2022/09/21 04:00:09;;;;;;;4.00;2.47;;;8.40;99.90;;;;;;5012585;28;20144;-72
2022/09/21 04:02:38;;;;;;;5.18;2.67;;;8.50;99.90;;;;;;5012203;28;20108;-72
2022/09/21 04:05:05;;;;;;;9.02;2.78;;;8.40;99.90;;;;;;5011374;28;20120;-72
2022/09/21 04:07:34;;;;;;;7.13;2.75;;;8.40;99.90;;;;;;5010775;28;20487;-72
2022/09/21 04:10:05;;;;;;;4.78;2.70;;;8.40;99.90;;;;;;5011393;28;20026;-72
2022/09/21 04:12:33;;;;;;;3.40;2.30;;;8.40;99.90;;;;;;5010994;28;20026;-72
2022/09/21 04:15:00;;;;;;;3.55;2.60;;;8.50;99.90;;;;;;5011518;28;20030;-72
2022/09/21 04:17:26;;;;;;;8.77;2.70;;;8.50;99.90;;;;;;5011334;28;20026;-72
2022/09/21 04:19:52;;;;;;;6.68;2.47;;;8.50;99.90;;;;;;5012248;28;20058;-71
2022/09/21 04:22:17;;;;;;;3.85;2.20;;;8.50;99.90;;;;;;5011381;28;20069;-72
2022/09/21 04:24:43;;;;;;;6.22;3.05;;;8.40;99.90;;;;;;5010637;28;20033;-72
2022/09/21 04:27:10;;;;;;;5.85;2.67;;;8.40;99.90;;;;;;5011276;28;20084;-72
2022/09/21 04:29:36;;;;;;;5.13;2.60;;;8.40;99.90;;;;;;5010761;28;20037;-72
2022/09/21 04:32:02;;;;;;;4.68;2.30;;;8.30;99.90;;;;;;5011117;28;20033;-72
2022/09/21 04:34:29;;;;;;;7.82;2.03;;;8.30;99.90;;;;;;5010597;28;20050;-72
2022/09/21 04:36:57;;;;;;;7.30;2.90;;;8.30;99.90;;;;;;5012568;28;20068;-71
2022/09/21 04:39:23;;;;;;;3.97;2.58;;;8.30;99.90;;;;;;5016025;28;20037;-72
2022/09/21 04:41:49;;;;;;;6.43;2.67;;;8.20;99.90;;;;;;5014384;28;20228;-71
2022/09/21 04:44:15;;;;;;;5.72;3.05;;;8.20;99.90;;;;;;5016173;28;20026;-73
2022/09/21 04:46:41;;;;;;;5.40;2.92;;;8.20;99.90;;;;;;5014209;28;20112;-74
2022/09/21 04:49:07;;;;;;;7.03;2.50;;;8.20;99.90;;;;;;5016001;28;20026;-73
2022/09/21 04:51:33;;;;;;;4.82;2.83;;;8.20;99.90;;;;;;5014093;28;20387;-73
2022/09/21 04:53:59;;;;;;;4.55;2.83;;;8.30;99.90;;;;;;5014614;28;20026;-72
2022/09/21 04:56:24;;;;;;;4.40;2.80;;;8.20;99.90;;;;;;5014465;28;20157;-71
2022/09/21 04:58:50;;;;;;;3.65;2.45;;;8.20;99.90;;;;;;5013980;28;20044;-72
2022/09/21 05:01:15;;;;;;;5.75;2.80;;;8.10;99.90;;;;;;5015761;28;20111;-71
2022/09/21 05:03:41;;;;;;;6.10;3.00;;;8.10;99.90;;;;;;5013926;28;20033;-72
2022/09/21 05:06:07;;;;;;;7.25;3.08;;;8.10;99.90;;;;;;5014103;28;20494;-72
2022/09/21 05:11:18;;;;;;;6.07;3.20;;;8.10;99.90;;;;;;5015746;28;20036;-71
2022/09/21 05:13:44;;;;;;;5.82;2.80;;;8.10;99.90;;;;;;5015078;28;20034;-72
2022/09/21 05:16:10;;;;;;;7.70;2.90;;;8.10;99.90;;;;;;5014198;28;20030;-73
2022/09/21 05:18:36;;;;;;;4.18;2.67;;;8.10;99.90;;;;;;5014506;28;20038;-74
2022/09/21 05:21:03;;;;;;;6.63;2.80;;;8.00;99.90;;;;;;5014155;28;20459;-74
2022/09/21 05:23:30;;;;;;;8.80;2.80;;;8.00;99.90;;;;;;5015665;28;20378;-71
2022/09/21 05:25:57;;;;;;;4.72;2.80;;;8.10;99.90;;;;;;5015318;28;20053;-72
2022/09/21 05:28:24;;;;;;;4.85;2.72;;;8.00;99.90;;;;;;5015300;28;20084;-71
2022/09/21 05:31:10;;;;;;;5.35;3.10;;;8.10;99.90;;;;;;5013385;28;20022;-71
2022/09/21 05:33:39;;;;;;;4.07;2.70;;;8.00;99.90;;;;;;5011499;28;20060;-74
2022/09/21 05:36:29;;;;;;;4.97;2.83;;;8.00;99.90;;;;;;5015005;28;20065;-72
2022/09/21 05:38:55;;;;;;;4.53;2.65;;;8.00;99.90;;;;;;5014633;28;20062;-71
2022/09/21 05:41:21;;;;;;;5.70;2.80;;;8.00;99.90;;;;;;5015067;28;20032;-72
2022/09/21 05:43:47;;;;;;;4.88;2.58;;;8.00;99.90;;;;;;5013116;28;20036;-71
2022/09/21 05:46:39;;;;;;;6.82;3.13;;;8.00;99.90;;;;;;5013659;28;20113;-72
2022/09/21 05:49:13;;;;;;;;;;;8.00;99.90;;;;;;5013797;28;20030;-72
2022/09/21 05:51:56;;;;;;;12.43;2.92;;;8.00;99.90;;;;;;5013087;28;19905;-73
2022/09/21 05:54:30;;;;;;;4.72;2.80;;;8.00;99.90;;;;;;5013664;28;20025;-73
2022/09/21 05:57:27;;;;;;;4.88;2.78;;;8.10;99.90;;;;;;5012848;28;20030;-74
2022/09/21 06:00:39;;;;;;;7.15;2.67;;;8.10;99.90;;;;;;5012882;28;20208;-74
2022/09/21 06:03:28;;;;;;;7.72;2.75;;;8.10;99.90;;;;;;4957010;28;20141;-74
2022/09/21 06:05:54;;;;;;;6.60;2.70;;;8.10;99.90;;;;;;4972764;28;20274;-72
2022/09/21 06:08:20;;;;;;;5.70;2.45;;;8.00;99.90;;;;;;4957007;28;20117;-71
2022/09/21 06:10:47;;;;;;;6.72;3.10;;;8.00;99.90;;;;;;4972640;28;20041;-73
2022/09/21 06:13:13;;;;;;;4.78;2.92;;;8.10;99.90;;;;;;4956789;28;20069;-73
2022/09/21 06:15:39;;;;;;;6.70;2.95;;;8.00;99.90;;;;;;4972381;28;20030;-74
2022/09/21 06:18:05;;;;;;;6.40;2.72;;;8.00;99.90;;;;;;4973045;28;20026;-74
2022/09/21 06:20:30;;;;;;;7.20;3.50;;;8.00;99.90;;;;;;4956678;28;20039;-73
2022/09/21 06:23:03;;;;;;;5.72;2.90;;;8.10;99.90;;;;;;4972228;28;20094;-74
2022/09/21 06:25:29;;;;;;;6.40;2.92;;;8.10;99.90;;;;;;4972942;28;20027;-74
2022/09/21 06:28:00;;;;;;;7.85;3.33;;;8.20;99.90;;;;;;4972420;28;20043;-73
2022/09/21 06:30:25;;;;;;;8.18;3.05;;;8.20;99.90;;;;;;4972860;28;20064;-73
2022/09/21 06:32:51;;;;;;;6.97;3.13;;;8.30;99.90;;;;;;4978458;28;20400;-74
2022/09/21 06:35:16;;;;;;;9.77;3.63;;;8.30;99.90;;;;;;5012326;28;20061;-74
2022/09/21 06:37:42;;;;;;;5.68;3.80;;;8.30;99.90;;;;;;5012137;28;20088;-74
2022/09/21 06:40:08;;;;;;;6.65;3.30;;;8.30;99.90;;;;;;5012615;28;20503;-73
2022/09/21 06:42:34;;;;;;;5.88;2.85;;;8.40;99.90;;;;;;5012757;28;20482;-72
2022/09/21 06:45:00;;;;;;;7.97;3.45;;;8.40;99.90;;;;;;5011989;28;20026;-71
2022/09/21 06:47:25;;;;;;;7.85;3.65;;;8.50;99.90;;;;;;5012520;28;20056;-72
2022/09/21 06:49:52;;;;;;;10.90;3.72;;;8.50;99.90;;;;;;5011888;28;20084;-74
2022/09/21 06:52:18;;;;;;;5.72;3.10;;;8.60;99.90;;;;;;5012453;28;20069;-74
2022/09/21 06:54:43;;;;;;;10.13;3.85;;;8.60;99.90;;;;;;5011518;28;20060;-74
2022/09/21 06:57:09;;;;;;;7.65;4.07;;;8.70;99.90;;;;;;5012530;28;20030;-74
2022/09/21 06:59:34;;;;;;;9.52;3.78;;;8.60;99.90;;;;;;5011604;28;20498;-74
2022/09/21 07:02:00;;;;;;;5.63;3.33;;;8.70;99.90;;;;;;5011594;28;20034;-74
2022/09/21 07:04:27;;;;;;;8.93;3.80;;;8.70;99.90;;;;;;5012256;28;20034;-74
2022/09/21 07:06:53;;;;;;;8.48;3.20;;;8.80;99.90;;;;;;5011651;28;20129;-74
2022/09/21 07:09:19;;;;;;;6.13;3.47;;;8.80;99.90;;;;;;5012224;28;20495;-74
2022/09/21 07:11:45;;;;;;;8.38;3.40;;;8.90;99.90;;;;;;5013059;28;20072;-74
2022/09/21 07:14:10;;;;;;;7.20;3.88;;;8.90;99.90;;;;;;5012076;28;20061;-72
2022/09/21 07:16:36;;;;;;;6.72;4.22;;;9.00;99.90;;;;;;5013307;28;20179;-72
2022/09/21 07:19:03;;;;;;;7.28;3.80;;;9.00;99.90;;;;;;5012585;28;20044;-72
2022/09/21 07:21:28;;;;;;;10.35;4.18;;;9.10;99.90;;;;;;5011716;28;20026;-72
2022/09/21 07:23:54;;;;;;;11.80;3.65;;;9.10;99.90;;;;;;5011409;28;20125;-72
2022/09/21 07:26:21;;;;;;;7.15;3.60;;;9.20;99.90;;;;;;5013162;28;20033;-72
2022/09/21 07:28:47;;;;;;;13.10;4.68;;;9.20;99.90;;;;;;5011178;28;20068;-74
2022/09/21 07:31:14;;;;;;;9.50;4.10;;;9.30;99.90;;;;;;5011809;28;20054;-74
2022/09/21 07:33:42;;;;;;;6.63;4.05;;;9.40;99.90;;;;;;5011037;28;20026;-75
2022/09/21 07:36:11;;;;;;;12.70;3.95;;;9.40;99.90;;;;;;5011778;28;20030;-72
2022/09/21 07:38:43;;;;;;;10.45;4.60;;;9.40;99.90;;;;;;5011698;28;20487;-72
2022/09/21 07:41:13;;;;;;;8.45;4.35;;;9.50;99.90;;;;;;5011877;28;20072;-72
2022/09/21 07:43:39;;;;;;;10.15;4.40;;;9.50;99.90;;;;;;5011651;28;20030;-72
2022/09/21 07:46:10;;;;;;;7.38;4.60;;;9.60;99.90;;;;;;5011598;28;20026;-73
2022/09/21 07:48:36;;;;;;;7.78;4.28;;;9.60;99.90;;;;;;5011855;28;20088;-72
2022/09/21 07:51:07;;;;;;;10.75;4.05;;;9.60;99.90;;;;;;5011044;28;20052;-72
2022/09/21 07:53:37;;;;;;;11.18;4.55;;;9.60;99.90;;;;;;5013038;28;20547;-73
2022/09/21 07:56:04;;;;;;;9.38;4.70;;;9.70;99.90;;;;;;5010958;28;20026;-73
2022/09/21 08:01:14;;;;;;;10.38;4.75;;;9.80;99.90;;;;;;5012871;28;20080;-72
2022/09/21 08:03:40;;;;;;;11.82;5.00;;;9.90;99.90;;;;;;5012728;28;20026;-73
2022/09/21 08:06:06;;;;;;;11.27;5.43;;;10.00;99.90;;;;;;5011460;28;20066;-72
2022/09/21 08:08:32;;;;;;;8.95;4.72;;;10.00;99.90;;;;;;5011486;28;20034;-72
2022/09/21 08:11:05;;;;;;;11.40;4.90;;;10.10;99.90;;;;;;5014081;28;20455;-73
2022/09/21 08:13:30;;;;;;;9.40;4.82;;;10.20;99.90;;;;;;5015414;28;20033;-73
2022/09/21 08:16:00;;;;;;;8.43;4.45;;;10.20;99.90;;;;;;5014798;28;20068;-72
2022/09/21 08:18:27;;;;;;;7.45;4.03;;;10.30;99.90;;;;;;5015309;28;20493;-72
2022/09/21 08:20:57;;;;;;;8.38;4.40;;;10.30;99.90;;;;;;5015981;28;20055;-73
2022/09/21 08:23:25;;;;;;;7.82;3.95;;;10.30;99.90;;;;;;5015484;28;20113;-72
2022/09/21 08:25:51;;;;;;;6.70;4.05;;;10.40;99.90;;;;;;5014710;28;20030;-73
2022/09/21 08:28:17;;;;;;;11.90;3.85;;;10.50;99.90;;;;;;5016419;28;20026;-72
2022/09/21 08:30:43;;;;;;;8.65;4.22;;;10.50;99.90;;;;;;5014554;28;20033;-76
2022/09/21 08:33:09;;;;;;;9.82;3.97;;;10.60;99.90;;;;;;5016296;28;20033;-73
2022/09/21 08:35:35;;;;;;;10.18;4.07;;;10.60;99.90;;;;;;5014853;28;20550;-72
2022/09/21 08:38:01;;;;;;;7.13;3.83;;;10.70;99.90;;;;;;5015993;28;20064;-73
2022/09/21 08:40:27;;;;;;;9.50;3.58;;;10.70;99.90;;;;;;5014812;28;20065;-72
2022/09/21 08:43:06;;;;;;;8.45;3.95;;;10.70;99.90;;;;;;5014335;28;20455;-72
2022/09/21 08:45:44;;;;;;;10.18;4.13;;;10.80;99.90;;;;;;5015055;28;20030;-73
2022/09/21 08:48:18;;;;;;;12.90;3.95;;;10.90;99.90;;;;;;5016071;28;20097;-73
2022/09/21 08:50:48;;;;;;;9.65;3.67;;;10.90;99.90;;;;;;5014566;28;20356;-76
2022/09/21 08:53:14;;;;;;;6.45;3.47;;;11.00;99.90;;;;;;5014958;28;20025;-72
2022/09/21 08:55:40;;;;;;;7.50;3.63;;;11.00;99.90;;;;;;5014672;28;20462;-72
2022/09/21 08:58:16;;;;;;;6.85;3.22;;;11.10;99.90;;;;;;5015078;28;20029;-73
2022/09/21 09:00:42;;;;;;;8.73;4.18;;;11.10;99.90;;;;;;5014525;28;20061;-72
2022/09/21 09:03:45;;;;;;;11.18;3.15;;;11.20;99.90;;;;;;5015247;28;20029;-72
2022/09/21 09:06:33;;;;;;;8.68;3.08;;;11.30;99.90;;;;;;5014370;28;20030;-72
2022/09/21 09:09:21;;;;;;;9.75;3.00;;;11.30;99.90;;;;;;5013999;28;20065;-75
2022/09/21 09:12:09;;;;;;;5.72;2.97;;;11.30;99.90;;;;;;5014062;28;20030;-75
2022/09/21 09:15:03;;;;;;;7.68;3.40;;;11.40;99.90;;;;;;5014401;28;20034;-74
2022/09/21 09:17:41;;;;;;;7.75;2.90;;;11.50;99.90;;;;;;5006446;28;20061;-74
2022/09/21 09:20:22;;;;;;;6.85;3.03;;;11.50;99.90;;;;;;5014943;28;20100;-76
2022/09/21 09:23:19;;;;;;;7.28;3.28;;;11.60;99.90;;;;;;5013078;28;20443;-75
2022/09/21 09:25:52;;;;;;;6.95;3.75;;;11.70;99.90;;;;;;5014098;28;20030;-75
2022/09/21 09:28:30;;;;;;;7.93;3.20;;;11.80;99.90;;;;;;5015137;28;20026;-74
2022/09/21 09:31:18;;;;;;;8.13;3.40;;;11.80;99.90;;;;;;5013500;28;20065;-75
2022/09/21 09:33:52;;;;;;;4.35;2.78;;;11.80;99.90;;;;;;5013792;28;20081;-75
2022/09/21 09:36:18;;;;;;;5.82;2.95;;;11.90;99.90;;;;;;5013506;28;20076;-73
2022/09/21 09:39:00;;;;;;;5.93;3.20;;;11.90;99.90;;;;;;5014922;28;20066;-73
2022/09/21 09:41:26;;;;;;;6.10;3.03;;;12.10;99.90;;;;;;5013592;28;20057;-72
2022/09/21 09:44:03;;;;;;;8.48;3.35;;;12.20;99.90;;;;;;5013165;28;20049;-73
2022/09/21 09:46:44;;;;;;;7.07;2.53;;;12.30;99.90;;;;;;5013733;28;20030;-73
2022/09/21 09:49:16;;;;;;;5.50;2.20;;;12.40;99.90;;;;;;5013164;28;20394;-73
2022/09/21 09:51:42;;;;;;;5.00;2.20;;;12.40;99.90;;;;;;5013797;28;20045;-72
2022/09/21 09:54:14;;;;;;;4.93;2.17;;;12.40;99.90;;;;;;5013061;28;20463;-72
2022/09/21 09:56:40;;;;;;;;;;;12.50;99.90;;;;;;5014161;28;20030;-73
2022/09/21 09:59:31;;;;;;;3.80;2.10;;;12.50;99.90;;;;;;5013149;28;19959;-73
2022/09/21 10:02:21;;;;;;;7.47;2.10;;;12.60;99.90;;;;;;5012937;28;20084;-73
2022/09/21 10:05:02;;;;;;;5.07;1.88;;;12.80;99.90;;;;;;5006063;28;20552;-72
2022/09/21 10:07:44;;;;;;;4.13;1.63;;;12.70;99.90;;;;;;5013394;28;20038;-73
2022/09/21 10:10:25;;;;;;;4.40;1.67;;;12.70;99.90;;;;;;5012608;28;20030;-73
2022/09/21 10:12:51;;;;;;;5.00;1.58;;;12.80;99.90;;;;;;5013907;28;20084;-73
2022/09/21 10:15:18;;;;;;;3.97;1.50;;;12.90;99.90;;;;;;5013118;28;20025;-73
2022/09/21 10:17:46;;;;;;;2.10;1.20;;;12.90;99.90;;;;;;5013033;28;20084;-73
2022/09/21 10:20:17;;;;;;;2.45;1.40;;;13.00;99.90;;;;;;5013856;28;20077;-73
2022/09/21 10:22:47;;;;;;;4.40;1.33;;;13.10;99.90;;;;;;5013017;28;20499;-72
2022/09/21 10:25:16;;;;;;;2.42;1.23;;;13.20;99.90;;;;;;5013505;28;20033;-73
2022/09/21 10:27:45;;;;;;;7.22;1.50;;;13.30;99.90;;;;;;5012934;28;20492;-73
2022/09/21 10:30:37;;;;;;;4.40;1.00;;;13.40;99.90;;;;;;5012392;28;20056;-73
2022/09/21 10:33:03;;;;;;;3.05;1.27;;;13.50;99.90;;;;;;5005384;28;20076;-73
2022/09/21 10:35:29;;;;;;;4.05;1.00;;;13.40;99.90;;;;;;5011408;28;20053;-74
2022/09/21 10:38:18;;;;;;;1.20;0.90;;;13.50;99.90;;;;;;5013604;28;20037;-73
2022/09/21 10:40:46;;;;;;;1.55;0.88;;;13.60;99.90;;;;;;5012851;28;20030;-72
2022/09/21 10:43:35;;;;;;;1.50;0.80;;;13.60;99.90;;;;;;5012167;28;20037;-73
2022/09/21 10:46:01;;;;;;;4.53;0.65;;;13.70;99.90;;;;;;5012204;28;20381;-73
2022/09/21 10:48:28;;;;;;;1.02;0.63;;;13.80;99.90;;;;;;5013848;28;20061;-73
2022/09/21 10:50:55;;;;;;;1.00;0.43;;;13.90;99.90;;;;;;5013271;28;20068;-73
2022/09/21 10:53:27;;;;;;;3.00;1.00;;;13.90;99.90;;;;;;5012642;28;20022;-72
2022/09/21 10:56:17;;;;;;;1.63;0.77;;;14.10;99.90;;;;;;5069078;27;20433;-73
2022/09/21 10:59:22;;;;;;;2.00;1.00;;;14.30;99.90;;;;;;5070034;28;20029;-73
2022/09/21 11:01:51;;;;;;;2.40;0.70;;;14.40;99.90;;;;;;5085612;28;20021;-72
2022/09/21 11:04:47;;;;;;;6.25;0.77;;;14.40;99.90;;;;;;5069836;28;20031;-72
2022/09/21 11:07:16;;;;;;;1.35;0.50;;;14.30;99.90;;;;;;5084592;28;20021;-72
2022/09/21 11:10:01;;;;;;;2.58;0.77;;;14.40;99.90;;;;;;5085495;28;20032;-72
2022/09/21 11:13:04;;;;;;;1.70;0.60;;;14.50;99.90;;;;;;5069995;28;20095;-72
2022/09/21 11:15:44;;;;;;;2.63;0.70;;;14.90;99.90;;;;;;5069907;28;20438;-72
2022/09/21 11:18:44;;;;;;;2.05;0.60;;;14.90;99.90;;;;;;5084763;28;20059;-72
2022/09/21 11:21:35;;;;;;;1.50;0.60;;;14.90;99.90;;;;;;5068873;28;20504;-72
2022/09/21 11:24:12;;;;;;;1.63;0.50;;;14.90;99.90;;;;;;5084537;28;20025;-73
2022/09/21 11:26:58;;;;;;;2.70;0.55;;;14.90;99.90;;;;;;5085197;28;20032;-72
2022/09/21 11:29:29;;;;;;;2.40;0.57;;;14.90;99.90;;;;;;5085174;28;20046;-72
2022/09/21 11:31:55;;;;;;;4.93;0.68;;;14.90;99.90;;;;;;5084535;28;20529;-73
2022/09/21 11:34:38;;;;;;;1.50;0.40;;;14.80;99.90;;;;;;5069221;28;20112;-72
2022/09/21 11:37:16;;;;;;;2.38;0.68;;;14.80;99.90;;;;;;5084320;28;20028;-73
2022/09/21 11:40:00;;;;;;;1.63;0.40;;;14.90;99.90;;;;;;5069322;28;20029;-72
2022/09/21 11:43:03;;;;;;;2.65;0.50;;;15.00;99.90;;;;;;5085032;28;20390;-73
2022/09/21 11:45:41;;;;;;;0.77;0.50;;;15.10;99.90;;;;;;5084665;28;20119;-72
2022/09/21 11:48:16;;;;;;;1.67;0.82;;;15.20;99.90;;;;;;5068401;28;20033;-73
2022/09/21 11:51:23;;;;;;;1.15;0.50;;;15.20;99.90;;;;;;5084603;28;20504;-73
2022/09/21 11:54:24;;;;;;;0.98;0.50;;;15.40;99.90;;;;;;5067582;28;20045;-73
2022/09/21 11:57:04;;;;;;;2.15;0.50;;;15.30;99.90;;;;;;5084594;28;20025;-72
2022/09/21 12:00:01;;;;;;;1.20;0.50;;;15.40;99.90;;;;;;5084633;28;20024;-72
2022/09/21 12:02:26;;;;;;;1.58;0.40;;;15.60;99.90;;;;;;5084456;28;20075;-73
2022/09/21 12:04:55;;;;;;;0.98;0.30;;;15.60;99.70;;;;;;5083908;28;20424;-72
2022/09/21 12:07:42;;;;;;;1.52;0.40;;;15.80;99.90;;;;;;5070905;28;20025;-72
2022/09/21 12:10:28;;;;;;;1.10;0.40;;;16.00;99.90;;;;;;5054898;28;20035;-73
2022/09/21 12:13:13;;;;;;;2.28;0.40;;;16.20;99.90;;;;;;5070835;28;20048;-72
2022/09/21 12:15:45;;;;;;;0.47;0.20;;;16.30;99.60;;;;;;5070753;28;20463;-72
2022/09/21 12:18:26;;;;;;;1.23;0.30;;;16.30;99.10;;;;;;5069819;28;20124;-72
2022/09/21 12:21:26;;;;;;;1.00;0.30;;;16.50;99.30;;;;;;5070797;28;20037;-73
2022/09/21 12:24:09;;;;;;;0.52;0.35;;;16.90;98.60;;;;;;5070416;28;20047;-73
2022/09/21 12:26:44;;;;;;;0.90;0.20;;;17.20;97.40;;;;;;5070595;28;20029;-72
2022/09/21 12:29:30;;;;;;;0.93;0.30;;;17.60;96.80;;;;;;5070012;28;20067;-72
2022/09/21 12:32:04;;;;;;;0.57;0.15;;;17.90;95.10;;;;;;5070407;28;20032;-72
2022/09/21 12:34:42;;;;;;;1.65;0.38;;;18.20;95.50;;;;;;5055007;28;20363;-73
2022/09/21 12:37:07;;;;;;;1.10;0.40;;;18.50;94.10;;;;;;5069826;28;20474;-72
2022/09/21 12:39:52;;;;;;;1.17;0.20;;;18.70;94.40;;;;;;5070316;28;20059;-73
2022/09/21 12:42:43;;;;;;;1.48;0.20;;;18.90;91.90;;;;;;5069711;28;20385;-73
2022/09/21 12:45:41;;;;;;;1.33;0.20;;;19.20;91.50;;;;;;5054187;28;20047;-73
2022/09/21 12:48:28;;;;;;;1.75;0.30;;;19.30;89.20;;;;;;5053652;28;20087;-73
2022/09/21 12:51:01;;;;;;;1.30;0.77;;;19.40;89.30;;;;;;5070258;28;20458;-73
2022/09/21 12:53:30;;;;;;;2.00;0.38;;;19.60;85.50;;;;;;5054539;28;20053;-73
2022/09/21 12:56:14;;;;;;;2.00;0.38;;;19.90;88.30;;;;;;5054103;28;20053;-73
2022/09/21 12:59:20;;;;;;;3.03;0.30;;;20.60;85.50;;;;;;5069749;28;20033;-73
2022/09/21 13:01:50;;;;;;;0.43;0.13;;;21.40;81.80;;;;;;5054465;28;20017;-73
2022/09/21 13:04:48;;;;;;;1.73;0.35;;;21.80;79.00;;;;;;5069329;28;20029;-73
2022/09/21 13:07:35;;;;;;;0.93;0.30;;;22.50;75.70;;;;;;5069193;28;20029;-73
2022/09/21 13:10:18;;;;;;;0.70;0.30;;;22.90;72.30;;;;;;5053902;28;20141;-74
2022/09/21 13:12:46;;;;;;;1.50;0.38;;;23.30;72.50;;;;;;5069747;28;20079;-74
2022/09/21 13:15:29;;;;;;;1.48;0.43;;;23.70;69.80;;;;;;5053661;28;20097;-74
2022/09/21 13:18:04;;;;;;;0.82;0.30;;;24.30;66.90;;;;;;5053266;28;20048;-74
2022/09/21 13:20:36;;;;;;;1.95;0.40;;;24.90;65.40;;;;;;5069762;28;20083;-74
2022/09/21 13:23:03;;;;;;;0.40;0.30;;;25.40;62.70;;;;;;5053636;28;20116;-75
2022/09/21 13:25:32;;;;;;;0.95;0.30;;;25.80;61.40;;;;;;5069239;28;20037;-74
2022/09/21 13:28:15;;;;;;;1.85;0.35;;;26.20;60.40;;;;;;5069401;28;20028;-74
2022/09/21 13:30:41;;;;;;;1.77;0.50;;;26.50;58.00;;;;;;5069657;28;20032;-74